sensor_id;sensor_type;location;lat;lon;timestamp;P1;durP1;ratioP1;P2;durP2;ratioP2
73550;SDS011;61816;53.582;10.096;2022-09-27T00:00:36;9.27;;;5.32;;
73550;SDS011;61816;53.582;10.096;2022-09-27T00:03:02;14.20;;;6.70;;
73550;SDS011;61816;53.582;10.096;2022-09-27T00:05:28;13.00;;;6.80;;
73550;SDS011;61816;53.582;10.096;2022-09-27T00:07:54;7.85;;;5.10;;
73550;SDS011;61816;53.582;10.096;2022-09-27T00:10:20;13.40;;;6.68;;
73550;SDS011;61816;53.582;10.096;2022-09-27T00:12:45;9.55;;;5.60;;
73550;SDS011;61816;53.582;10.096;2022-09-27T00:15:12;11.65;;;6.30;;
73550;SDS011;61816;53.582;10.096;2022-09-27T00:17:38;12.95;;;7.32;;
73550;SDS011;61816;53.582;10.096;2022-09-27T00:20:04;15.98;;;6.80;;
73550;SDS011;61816;53.582;10.096;2022-09-27T00:22:31;19.15;;;9.05;;
73550;SDS011;61816;53.582;10.096;2022-09-27T00:24:56;13.50;;;9.35;;
73550;SDS011;61816;53.582;10.096;2022-09-27T00:27:23;10.27;;;7.32;;
73550;SDS011;61816;53.582;10.096;2022-09-27T00:29:49;19.15;;;7.35;;
73550;SDS011;61816;53.582;10.096;2022-09-27T00:32:15;13.15;;;8.40;;
73550;SDS011;61816;53.582;10.096;2022-09-27T00:34:40;10.75;;;6.88;;
73550;SDS011;61816;53.582;10.096;2022-09-27T00:37:06;10.30;;;6.57;;
73550;SDS011;61816;53.582;10.096;2022-09-27T00:39:33;10.23;;;6.63;;
73550;SDS011;61816;53.582;10.096;2022-09-27T00:41:58;15.90;;;9.45;;
73550;SDS011;61816;53.582;10.096;2022-09-27T00:47:02;12.75;;;7.43;;
73550;SDS011;61816;53.582;10.096;2022-09-27T00:52:23;14.15;;;8.57;;
73550;SDS011;61816;53.582;10.096;2022-09-27T00:54:50;13.70;;;8.30;;
73550;SDS011;61816;53.582;10.096;2022-09-27T00:57:21;17.38;;;9.35;;
73550;SDS011;61816;53.582;10.096;2022-09-27T00:59:52;16.73;;;10.52;;
73550;SDS011;61816;53.582;10.096;2022-09-27T01:02:29;12.70;;;9.15;;
73550;SDS011;61816;53.582;10.096;2022-09-27T01:04:55;14.95;;;8.43;;
73550;SDS011;61816;53.582;10.096;2022-09-27T01:07:21;12.13;;;6.82;;
73550;SDS011;61816;53.582;10.096;2022-09-27T01:09:46;16.73;;;8.95;;
73550;SDS011;61816;53.582;10.096;2022-09-27T01:17:34;14.52;;;8.80;;
73550;SDS011;61816;53.582;10.096;2022-09-27T01:20:21;10.85;;;7.47;;
73550;SDS011;61816;53.582;10.096;2022-09-27T01:34:04;17.85;;;8.40;;
73550;SDS011;61816;53.582;10.096;2022-09-27T01:47:36;16.05;;;8.68;;
73550;SDS011;61816;53.582;10.096;2022-09-27T01:50:09;11.40;;;8.15;;
73550;SDS011;61816;53.582;10.096;2022-09-27T01:52:40;17.80;;;9.07;;
73550;SDS011;61816;53.582;10.096;2022-09-27T01:55:12;14.27;;;9.18;;
73550;SDS011;61816;53.582;10.096;2022-09-27T01:57:42;14.85;;;8.23;;
73550;SDS011;61816;53.582;10.096;2022-09-27T02:00:13;19.30;;;9.57;;
73550;SDS011;61816;53.582;10.096;2022-09-27T02:02:39;13.75;;;7.97;;
73550;SDS011;61816;53.582;10.096;2022-09-27T02:05:10;16.00;;;9.98;;
73550;SDS011;61816;53.582;10.096;2022-09-27T02:10:11;17.98;;;10.60;;
73550;SDS011;61816;53.582;10.096;2022-09-27T02:12:45;13.05;;;8.45;;
73550;SDS011;61816;53.582;10.096;2022-09-27T02:15:15;14.75;;;9.93;;
73550;SDS011;61816;53.582;10.096;2022-09-27T02:20:29;13.35;;;8.55;;
73550;SDS011;61816;53.582;10.096;2022-09-27T02:26:02;15.02;;;9.75;;
73550;SDS011;61816;53.582;10.096;2022-09-27T02:31:12;11.35;;;8.25;;
73550;SDS011;61816;53.582;10.096;2022-09-27T02:33:48;11.00;;;6.97;;
73550;SDS011;61816;53.582;10.096;2022-09-27T02:36:18;12.50;;;9.05;;
73550;SDS011;61816;53.582;10.096;2022-09-27T02:38:45;16.30;;;10.27;;
73550;SDS011;61816;53.582;10.096;2022-09-27T02:41:14;13.07;;;9.93;;
73550;SDS011;61816;53.582;10.096;2022-09-27T02:43:41;12.82;;;9.00;;
73550;SDS011;61816;53.582;10.096;2022-09-27T02:46:24;9.98;;;6.68;;
73550;SDS011;61816;53.582;10.096;2022-09-27T02:49:11;10.45;;;6.32;;
73550;SDS011;61816;53.582;10.096;2022-09-27T02:51:53;13.57;;;8.90;;
73550;SDS011;61816;53.582;10.096;2022-09-27T02:57:36;13.73;;;9.70;;
73550;SDS011;61816;53.582;10.096;2022-09-27T03:00:17;20.83;;;9.30;;
73550;SDS011;61816;53.582;10.096;2022-09-27T03:02:48;12.85;;;8.55;;
73550;SDS011;61816;53.582;10.096;2022-09-27T03:05:52;17.23;;;10.50;;
73550;SDS011;61816;53.582;10.096;2022-09-27T03:08:22;12.68;;;7.55;;
73550;SDS011;61816;53.582;10.096;2022-09-27T03:10:48;13.30;;;8.20;;
73550;SDS011;61816;53.582;10.096;2022-09-27T03:13:14;10.18;;;7.68;;
73550;SDS011;61816;53.582;10.096;2022-09-27T03:15:39;12.43;;;8.25;;
73550;SDS011;61816;53.582;10.096;2022-09-27T03:18:05;13.63;;;7.20;;
73550;SDS011;61816;53.582;10.096;2022-09-27T03:20:30;17.13;;;10.32;;
73550;SDS011;61816;53.582;10.096;2022-09-27T03:22:55;14.50;;;8.98;;
73550;SDS011;61816;53.582;10.096;2022-09-27T03:25:21;19.30;;;8.23;;
73550;SDS011;61816;53.582;10.096;2022-09-27T03:27:46;18.20;;;8.40;;
73550;SDS011;61816;53.582;10.096;2022-09-27T03:30:12;19.15;;;9.80;;
73550;SDS011;61816;53.582;10.096;2022-09-27T03:32:42;14.50;;;8.85;;
73550;SDS011;61816;53.582;10.096;2022-09-27T03:35:08;15.55;;;9.68;;
73550;SDS011;61816;53.582;10.096;2022-09-27T03:37:34;13.20;;;8.73;;
73550;SDS011;61816;53.582;10.096;2022-09-27T03:39:59;18.35;;;11.38;;
73550;SDS011;61816;53.582;10.096;2022-09-27T03:42:25;14.80;;;8.85;;
73550;SDS011;61816;53.582;10.096;2022-09-27T03:44:50;22.52;;;12.65;;
73550;SDS011;61816;53.582;10.096;2022-09-27T03:47:15;19.48;;;11.88;;
73550;SDS011;61816;53.582;10.096;2022-09-27T03:49:41;10.07;;;8.10;;
73550;SDS011;61816;53.582;10.096;2022-09-27T03:52:06;17.58;;;10.95;;
73550;SDS011;61816;53.582;10.096;2022-09-27T03:54:32;16.95;;;11.20;;
73550;SDS011;61816;53.582;10.096;2022-09-27T03:56:57;18.73;;;10.68;;
73550;SDS011;61816;53.582;10.096;2022-09-27T03:59:23;18.98;;;11.90;;
73550;SDS011;61816;53.582;10.096;2022-09-27T04:01:48;13.30;;;9.43;;
73550;SDS011;61816;53.582;10.096;2022-09-27T04:04:14;18.23;;;12.35;;
73550;SDS011;61816;53.582;10.096;2022-09-27T04:06:39;20.48;;;11.95;;
73550;SDS011;61816;53.582;10.096;2022-09-27T04:09:04;20.67;;;12.52;;
73550;SDS011;61816;53.582;10.096;2022-09-27T04:11:30;15.80;;;10.60;;
73550;SDS011;61816;53.582;10.096;2022-09-27T04:13:58;14.70;;;10.50;;
73550;SDS011;61816;53.582;10.096;2022-09-27T04:16:24;22.20;;;12.30;;
73550;SDS011;61816;53.582;10.096;2022-09-27T04:18:49;17.73;;;11.75;;
73550;SDS011;61816;53.582;10.096;2022-09-27T04:21:15;24.83;;;15.13;;
73550;SDS011;61816;53.582;10.096;2022-09-27T04:23:40;18.15;;;13.80;;
73550;SDS011;61816;53.582;10.096;2022-09-27T04:26:06;18.33;;;12.50;;
73550;SDS011;61816;53.582;10.096;2022-09-27T04:28:31;24.98;;;12.93;;
73550;SDS011;61816;53.582;10.096;2022-09-27T04:30:57;20.98;;;12.25;;
73550;SDS011;61816;53.582;10.096;2022-09-27T04:33:23;21.25;;;14.50;;
73550;SDS011;61816;53.582;10.096;2022-09-27T04:35:48;21.30;;;12.82;;
73550;SDS011;61816;53.582;10.096;2022-09-27T04:38:32;20.17;;;13.80;;
73550;SDS011;61816;53.582;10.096;2022-09-27T04:40:58;28.60;;;16.67;;
73550;SDS011;61816;53.582;10.096;2022-09-27T04:43:26;22.02;;;12.52;;
73550;SDS011;61816;53.582;10.096;2022-09-27T04:45:52;23.52;;;13.82;;
73550;SDS011;61816;53.582;10.096;2022-09-27T04:48:18;22.52;;;13.65;;
73550;SDS011;61816;53.582;10.096;2022-09-27T04:50:43;25.33;;;15.10;;
73550;SDS011;61816;53.582;10.096;2022-09-27T04:53:14;24.45;;;14.70;;
73550;SDS011;61816;53.582;10.096;2022-09-27T04:55:44;23.35;;;15.73;;
73550;SDS011;61816;53.582;10.096;2022-09-27T04:58:10;17.02;;;12.27;;
73550;SDS011;61816;53.582;10.096;2022-09-27T05:00:35;28.25;;;17.15;;
73550;SDS011;61816;53.582;10.096;2022-09-27T05:03:01;15.50;;;10.85;;
73550;SDS011;61816;53.582;10.096;2022-09-27T05:05:26;28.00;;;15.55;;
73550;SDS011;61816;53.582;10.096;2022-09-27T05:07:51;29.55;;;15.88;;
73550;SDS011;61816;53.582;10.096;2022-09-27T05:10:17;21.90;;;15.43;;
73550;SDS011;61816;53.582;10.096;2022-09-27T05:12:42;28.38;;;15.93;;
73550;SDS011;61816;53.582;10.096;2022-09-27T05:15:08;22.25;;;16.05;;
73550;SDS011;61816;53.582;10.096;2022-09-27T05:17:34;24.33;;;15.82;;
73550;SDS011;61816;53.582;10.096;2022-09-27T05:19:59;23.10;;;13.95;;
73550;SDS011;61816;53.582;10.096;2022-09-27T05:22:25;32.72;;;16.20;;
73550;SDS011;61816;53.582;10.096;2022-09-27T05:24:50;25.15;;;16.15;;
73550;SDS011;61816;53.582;10.096;2022-09-27T05:27:16;30.23;;;17.65;;
73550;SDS011;61816;53.582;10.096;2022-09-27T05:29:44;30.25;;;18.73;;
73550;SDS011;61816;53.582;10.096;2022-09-27T05:32:12;29.70;;;15.93;;
73550;SDS011;61816;53.582;10.096;2022-09-27T05:34:38;31.48;;;17.73;;
73550;SDS011;61816;53.582;10.096;2022-09-27T05:37:03;28.83;;;16.70;;
73550;SDS011;61816;53.582;10.096;2022-09-27T05:39:29;25.27;;;16.05;;
73550;SDS011;61816;53.582;10.096;2022-09-27T05:41:54;27.60;;;17.05;;
73550;SDS011;61816;53.582;10.096;2022-09-27T05:44:20;31.45;;;19.77;;
73550;SDS011;61816;53.582;10.096;2022-09-27T05:46:46;25.92;;;14.07;;
73550;SDS011;61816;53.582;10.096;2022-09-27T05:49:11;24.73;;;16.15;;
73550;SDS011;61816;53.582;10.096;2022-09-27T05:51:36;28.38;;;17.85;;
73550;SDS011;61816;53.582;10.096;2022-09-27T05:54:02;26.33;;;16.45;;
73550;SDS011;61816;53.582;10.096;2022-09-27T05:56:27;22.40;;;13.68;;
73550;SDS011;61816;53.582;10.096;2022-09-27T05:58:53;24.65;;;16.80;;
73550;SDS011;61816;53.582;10.096;2022-09-27T06:01:18;24.20;;;12.52;;
73550;SDS011;61816;53.582;10.096;2022-09-27T06:03:44;21.63;;;14.00;;
73550;SDS011;61816;53.582;10.096;2022-09-27T06:06:11;25.58;;;14.05;;
73550;SDS011;61816;53.582;10.096;2022-09-27T06:08:37;29.80;;;16.05;;
73550;SDS011;61816;53.582;10.096;2022-09-27T06:11:04;28.75;;;15.07;;
73550;SDS011;61816;53.582;10.096;2022-09-27T06:13:32;25.40;;;15.93;;
73550;SDS011;61816;53.582;10.096;2022-09-27T06:15:57;24.35;;;15.63;;
73550;SDS011;61816;53.582;10.096;2022-09-27T06:18:23;25.77;;;15.65;;
73550;SDS011;61816;53.582;10.096;2022-09-27T06:20:49;38.92;;;20.35;;
73550;SDS011;61816;53.582;10.096;2022-09-27T06:23:16;33.83;;;17.90;;
73550;SDS011;61816;53.582;10.096;2022-09-27T06:25:49;32.28;;;18.23;;
73550;SDS011;61816;53.582;10.096;2022-09-27T06:28:16;35.70;;;18.08;;
73550;SDS011;61816;53.582;10.096;2022-09-27T06:30:43;38.63;;;19.67;;
73550;SDS011;61816;53.582;10.096;2022-09-27T06:33:14;41.30;;;21.85;;
73550;SDS011;61816;53.582;10.096;2022-09-27T06:35:47;29.73;;;18.83;;
73550;SDS011;61816;53.582;10.096;2022-09-27T06:38:17;45.35;;;20.98;;
73550;SDS011;61816;53.582;10.096;2022-09-27T06:40:43;48.83;;;21.65;;
73550;SDS011;61816;53.582;10.096;2022-09-27T06:43:10;53.05;;;21.90;;
73550;SDS011;61816;53.582;10.096;2022-09-27T06:45:40;27.83;;;17.20;;
73550;SDS011;61816;53.582;10.096;2022-09-27T06:48:07;38.03;;;17.35;;
73550;SDS011;61816;53.582;10.096;2022-09-27T06:50:35;26.05;;;14.80;;
73550;SDS011;61816;53.582;10.096;2022-09-27T06:53:02;27.13;;;13.73;;
73550;SDS011;61816;53.582;10.096;2022-09-27T06:55:29;23.80;;;12.73;;
73550;SDS011;61816;53.582;10.096;2022-09-27T06:57:55;22.88;;;12.13;;
73550;SDS011;61816;53.582;10.096;2022-09-27T07:00:40;18.17;;;11.32;;
73550;SDS011;61816;53.582;10.096;2022-09-27T07:03:07;18.98;;;9.68;;
73550;SDS011;61816;53.582;10.096;2022-09-27T07:05:35;16.05;;;9.32;;
73550;SDS011;61816;53.582;10.096;2022-09-27T07:08:02;18.60;;;9.38;;
73550;SDS011;61816;53.582;10.096;2022-09-27T07:10:29;9.13;;;6.90;;
73550;SDS011;61816;53.582;10.096;2022-09-27T07:13:02;11.90;;;7.00;;
73550;SDS011;61816;53.582;10.096;2022-09-27T07:15:32;12.35;;;5.70;;
73550;SDS011;61816;53.582;10.096;2022-09-27T07:18:01;15.60;;;6.38;;
73550;SDS011;61816;53.582;10.096;2022-09-27T07:20:29;14.65;;;7.03;;
73550;SDS011;61816;53.582;10.096;2022-09-27T07:22:55;8.02;;;5.95;;
73550;SDS011;61816;53.582;10.096;2022-09-27T07:25:21;8.32;;;5.05;;
73550;SDS011;61816;53.582;10.096;2022-09-27T07:27:47;11.85;;;4.80;;
73550;SDS011;61816;53.582;10.096;2022-09-27T07:30:12;6.63;;;5.07;;
73550;SDS011;61816;53.582;10.096;2022-09-27T07:32:38;10.40;;;4.70;;
73550;SDS011;61816;53.582;10.096;2022-09-27T07:35:04;6.78;;;3.75;;
73550;SDS011;61816;53.582;10.096;2022-09-27T07:37:34;3.42;;;1.80;;
73550;SDS011;61816;53.582;10.096;2022-09-27T07:40:01;4.10;;;1.85;;
73550;SDS011;61816;53.582;10.096;2022-09-27T07:42:31;4.10;;;2.40;;
73550;SDS011;61816;53.582;10.096;2022-09-27T07:44:56;3.78;;;2.20;;
73550;SDS011;61816;53.582;10.096;2022-09-27T07:47:22;6.18;;;1.73;;
73550;SDS011;61816;53.582;10.096;2022-09-27T07:49:51;4.00;;;1.75;;
73550;SDS011;61816;53.582;10.096;2022-09-27T07:52:17;2.75;;;1.40;;
73550;SDS011;61816;53.582;10.096;2022-09-27T07:54:44;3.08;;;1.40;;
73550;SDS011;61816;53.582;10.096;2022-09-27T07:57:10;7.68;;;1.02;;
73550;SDS011;61816;53.582;10.096;2022-09-27T07:59:36;5.72;;;1.13;;
73550;SDS011;61816;53.582;10.096;2022-09-27T08:02:01;4.57;;;1.15;;
73550;SDS011;61816;53.582;10.096;2022-09-27T08:04:26;1.40;;;1.20;;
73550;SDS011;61816;53.582;10.096;2022-09-27T08:06:53;4.97;;;1.77;;
73550;SDS011;61816;53.582;10.096;2022-09-27T08:09:18;5.18;;;1.23;;
73550;SDS011;61816;53.582;10.096;2022-09-27T08:11:44;8.80;;;1.73;;
73550;SDS011;61816;53.582;10.096;2022-09-27T08:14:10;5.35;;;1.52;;
73550;SDS011;61816;53.582;10.096;2022-09-27T08:16:36;4.78;;;2.05;;
73550;SDS011;61816;53.582;10.096;2022-09-27T08:19:01;3.47;;;1.90;;
73550;SDS011;61816;53.582;10.096;2022-09-27T08:21:26;5.85;;;2.42;;
73550;SDS011;61816;53.582;10.096;2022-09-27T08:23:52;5.50;;;2.55;;
73550;SDS011;61816;53.582;10.096;2022-09-27T08:26:18;5.00;;;2.03;;
73550;SDS011;61816;53.582;10.096;2022-09-27T08:28:43;5.30;;;2.28;;
73550;SDS011;61816;53.582;10.096;2022-09-27T08:31:11;5.13;;;2.03;;
73550;SDS011;61816;53.582;10.096;2022-09-27T08:33:36;5.28;;;2.00;;
73550;SDS011;61816;53.582;10.096;2022-09-27T08:36:02;9.40;;;3.08;;
73550;SDS011;61816;53.582;10.096;2022-09-27T08:38:27;4.05;;;1.85;;
73550;SDS011;61816;53.582;10.096;2022-09-27T08:40:53;5.30;;;2.05;;
73550;SDS011;61816;53.582;10.096;2022-09-27T08:43:33;9.02;;;2.88;;
73550;SDS011;61816;53.582;10.096;2022-09-27T08:46:17;6.13;;;2.50;;
73550;SDS011;61816;53.582;10.096;2022-09-27T08:48:58;14.05;;;2.20;;
73550;SDS011;61816;53.582;10.096;2022-09-27T08:51:40;8.45;;;3.00;;
73550;SDS011;61816;53.582;10.096;2022-09-27T08:54:10;9.40;;;2.38;;
73550;SDS011;61816;53.582;10.096;2022-09-27T08:57:04;3.30;;;2.00;;
73550;SDS011;61816;53.582;10.096;2022-09-27T08:59:39;10.47;;;2.40;;
73550;SDS011;61816;53.582;10.096;2022-09-27T09:02:17;9.27;;;2.45;;
73550;SDS011;61816;53.582;10.096;2022-09-27T09:04:45;10.50;;;2.70;;
73550;SDS011;61816;53.582;10.096;2022-09-27T09:13:14;7.32;;;2.08;;
73550;SDS011;61816;53.582;10.096;2022-09-27T09:15:55;10.38;;;2.97;;
73550;SDS011;61816;53.582;10.096;2022-09-27T09:31:49;5.25;;;2.88;;
73550;SDS011;61816;53.582;10.096;2022-09-27T09:34:34;8.45;;;2.58;;
73550;SDS011;61816;53.582;10.096;2022-09-27T09:37:04;6.85;;;4.00;;
73550;SDS011;61816;53.582;10.096;2022-09-27T09:39:42;6.03;;;2.65;;
73550;SDS011;61816;53.582;10.096;2022-09-27T09:45:19;6.70;;;2.40;;
73550;SDS011;61816;53.582;10.096;2022-09-27T09:47:47;8.02;;;2.75;;
73550;SDS011;61816;53.582;10.096;2022-09-27T09:50:29;18.15;;;3.40;;
73550;SDS011;61816;53.582;10.096;2022-09-27T09:55:42;6.53;;;2.53;;
73550;SDS011;61816;53.582;10.096;2022-09-27T09:58:23;7.43;;;1.80;;
73550;SDS011;61816;53.582;10.096;2022-09-27T10:00:58;4.22;;;1.80;;
73550;SDS011;61816;53.582;10.096;2022-09-27T10:03:34;7.32;;;2.40;;
73550;SDS011;61816;53.582;10.096;2022-09-27T10:05:59;3.28;;;1.90;;
73550;SDS011;61816;53.582;10.096;2022-09-27T10:08:25;8.02;;;1.77;;
73550;SDS011;61816;53.582;10.096;2022-09-27T10:10:50;6.30;;;1.75;;
73550;SDS011;61816;53.582;10.096;2022-09-27T10:13:19;2.58;;;1.67;;
73550;SDS011;61816;53.582;10.096;2022-09-27T10:15:47;6.93;;;1.50;;
73550;SDS011;61816;53.582;10.096;2022-09-27T10:18:24;2.92;;;1.52;;
73550;SDS011;61816;53.582;10.096;2022-09-27T10:20:54;3.13;;;1.38;;
73550;SDS011;61816;53.582;10.096;2022-09-27T10:23:23;4.72;;;1.83;;
73550;SDS011;61816;53.582;10.096;2022-09-27T10:25:56;4.82;;;1.90;;
73550;SDS011;61816;53.582;10.096;2022-09-27T10:28:25;2.38;;;1.50;;
73550;SDS011;61816;53.582;10.096;2022-09-27T10:30:56;3.42;;;1.60;;
73550;SDS011;61816;53.582;10.096;2022-09-27T10:33:24;7.15;;;2.15;;
73550;SDS011;61816;53.582;10.096;2022-09-27T10:35:51;3.05;;;1.50;;
73550;SDS011;61816;53.582;10.096;2022-09-27T10:40:43;6.93;;;1.98;;
73550;SDS011;61816;53.582;10.096;2022-09-27T10:43:23;2.13;;;1.17;;
73550;SDS011;61816;53.582;10.096;2022-09-27T10:48:34;6.63;;;2.10;;
73550;SDS011;61816;53.582;10.096;2022-09-27T10:51:02;6.72;;;1.63;;
73550;SDS011;61816;53.582;10.096;2022-09-27T10:53:30;3.80;;;1.23;;
73550;SDS011;61816;53.582;10.096;2022-09-27T10:55:58;3.85;;;1.40;;
73550;SDS011;61816;53.582;10.096;2022-09-27T10:58:29;2.13;;;1.20;;
73550;SDS011;61816;53.582;10.096;2022-09-27T11:00:57;1.75;;;1.63;;
73550;SDS011;61816;53.582;10.096;2022-09-27T11:03:27;5.80;;;1.33;;
73550;SDS011;61816;53.582;10.096;2022-09-27T11:05:55;2.78;;;1.42;;
73550;SDS011;61816;53.582;10.096;2022-09-27T11:08:31;2.45;;;1.30;;
73550;SDS011;61816;53.582;10.096;2022-09-27T11:13:38;3.55;;;1.40;;
73550;SDS011;61816;53.582;10.096;2022-09-27T11:16:11;3.75;;;1.38;;
73550;SDS011;61816;53.582;10.096;2022-09-27T11:18:57;3.10;;;1.50;;
73550;SDS011;61816;53.582;10.096;2022-09-27T11:21:35;3.83;;;1.20;;
73550;SDS011;61816;53.582;10.096;2022-09-27T11:38:10;2.13;;;1.58;;
73550;SDS011;61816;53.582;10.096;2022-09-27T11:43:32;4.63;;;1.83;;
73550;SDS011;61816;53.582;10.096;2022-09-27T11:51:34;3.35;;;1.58;;
73550;SDS011;61816;53.582;10.096;2022-09-27T11:54:15;1.90;;;1.00;;
73550;SDS011;61816;53.582;10.096;2022-09-27T12:10:46;1.23;;;0.95;;
73550;SDS011;61816;53.582;10.096;2022-09-27T12:13:15;6.90;;;1.42;;
73550;SDS011;61816;53.582;10.096;2022-09-27T12:15:53;4.72;;;1.27;;
73550;SDS011;61816;53.582;10.096;2022-09-27T12:18:25;5.03;;;1.38;;
73550;SDS011;61816;53.582;10.096;2022-09-27T12:20:53;3.05;;;1.55;;
73550;SDS011;61816;53.582;10.096;2022-09-27T12:23:21;2.95;;;1.10;;
73550;SDS011;61816;53.582;10.096;2022-09-27T12:25:55;3.55;;;2.05;;
73550;SDS011;61816;53.582;10.096;2022-09-27T12:31:22;2.50;;;0.93;;
73550;SDS011;61816;53.582;10.096;2022-09-27T12:36:38;1.80;;;0.60;;
73550;SDS011;61816;53.582;10.096;2022-09-27T12:39:22;4.43;;;1.00;;
73550;SDS011;61816;53.582;10.096;2022-09-27T12:41:58;2.90;;;0.82;;
73550;SDS011;61816;53.582;10.096;2022-09-27T12:44:33;1.17;;;1.00;;
73550;SDS011;61816;53.582;10.096;2022-09-27T12:47:12;4.35;;;1.00;;
73550;SDS011;61816;53.582;10.096;2022-09-27T12:56:08;2.80;;;1.15;;
73550;SDS011;61816;53.582;10.096;2022-09-27T12:58:54;1.25;;;0.80;;
73550;SDS011;61816;53.582;10.096;2022-09-27T13:09:51;3.45;;;0.80;;
73550;SDS011;61816;53.582;10.096;2022-09-27T13:12:27;2.45;;;1.05;;
73550;SDS011;61816;53.582;10.096;2022-09-27T13:15:05;3.63;;;1.10;;
73550;SDS011;61816;53.582;10.096;2022-09-27T13:31:00;2.95;;;0.80;;
73550;SDS011;61816;53.582;10.096;2022-09-27T13:38:31;4.47;;;0.73;;
73550;SDS011;61816;53.582;10.096;2022-09-27T13:41:15;4.00;;;0.80;;
73550;SDS011;61816;53.582;10.096;2022-09-27T13:46:30;2.92;;;0.88;;
73550;SDS011;61816;53.582;10.096;2022-09-27T13:51:49;1.20;;;0.80;;
73550;SDS011;61816;53.582;10.096;2022-09-27T13:54:36;1.55;;;0.88;;
73550;SDS011;61816;53.582;10.096;2022-09-27T13:57:03;6.40;;;1.15;;
73550;SDS011;61816;53.582;10.096;2022-09-27T13:59:38;2.08;;;0.90;;
73550;SDS011;61816;53.582;10.096;2022-09-27T14:04:49;1.90;;;0.95;;
73550;SDS011;61816;53.582;10.096;2022-09-27T14:07:16;5.45;;;0.90;;
73550;SDS011;61816;53.582;10.096;2022-09-27T14:09:47;1.55;;;0.82;;
73550;SDS011;61816;53.582;10.096;2022-09-27T14:12:18;4.90;;;0.80;;
73550;SDS011;61816;53.582;10.096;2022-09-27T14:14:49;4.07;;;0.90;;
73550;SDS011;61816;53.582;10.096;2022-09-27T14:17:15;3.72;;;1.00;;
73550;SDS011;61816;53.582;10.096;2022-09-27T14:19:43;1.63;;;1.10;;
73550;SDS011;61816;53.582;10.096;2022-09-27T14:22:10;4.35;;;1.05;;
73550;SDS011;61816;53.582;10.096;2022-09-27T14:29:39;4.40;;;1.30;;
73550;SDS011;61816;53.582;10.096;2022-09-27T14:32:10;3.53;;;1.40;;
73550;SDS011;61816;53.582;10.096;2022-09-27T14:34:48;3.88;;;1.17;;
73550;SDS011;61816;53.582;10.096;2022-09-27T14:37:53;6.47;;;1.63;;
73550;SDS011;61816;53.582;10.096;2022-09-27T14:40:19;2.85;;;1.00;;
73550;SDS011;61816;53.582;10.096;2022-09-27T14:42:46;3.25;;;0.90;;
73550;SDS011;61816;53.582;10.096;2022-09-27T14:45:19;3.47;;;1.10;;
73550;SDS011;61816;53.582;10.096;2022-09-27T14:47:46;3.42;;;1.10;;
73550;SDS011;61816;53.582;10.096;2022-09-27T14:50:18;4.50;;;1.83;;
73550;SDS011;61816;53.582;10.096;2022-09-27T14:52:49;4.75;;;1.25;;
73550;SDS011;61816;53.582;10.096;2022-09-27T14:55:20;2.92;;;1.50;;
73550;SDS011;61816;53.582;10.096;2022-09-27T14:57:52;4.93;;;1.70;;
73550;SDS011;61816;53.582;10.096;2022-09-27T15:00:21;4.50;;;1.65;;
73550;SDS011;61816;53.582;10.096;2022-09-27T15:02:56;5.10;;;1.63;;
73550;SDS011;61816;53.582;10.096;2022-09-27T15:05:32;8.35;;;1.65;;
73550;SDS011;61816;53.582;10.096;2022-09-27T15:08:05;4.32;;;1.75;;
73550;SDS011;61816;53.582;10.096;2022-09-27T15:10:35;9.07;;;2.08;;
73550;SDS011;61816;53.582;10.096;2022-09-27T15:13:02;5.18;;;1.92;;
73550;SDS011;61816;53.582;10.096;2022-09-27T15:15:30;8.23;;;2.65;;
73550;SDS011;61816;53.582;10.096;2022-09-27T15:18:01;10.13;;;2.83;;
73550;SDS011;61816;53.582;10.096;2022-09-27T15:20:33;7.90;;;2.80;;
73550;SDS011;61816;53.582;10.096;2022-09-27T15:23:23;4.38;;;2.10;;
73550;SDS011;61816;53.582;10.096;2022-09-27T15:28:44;3.80;;;1.50;;
73550;SDS011;61816;53.582;10.096;2022-09-27T15:31:12;5.78;;;1.48;;
73550;SDS011;61816;53.582;10.096;2022-09-27T15:33:51;6.38;;;1.88;;
73550;SDS011;61816;53.582;10.096;2022-09-27T15:36:40;3.40;;;1.35;;
73550;SDS011;61816;53.582;10.096;2022-09-27T15:39:17;6.05;;;2.40;;
73550;SDS011;61816;53.582;10.096;2022-09-27T15:44:52;9.07;;;1.70;;
73550;SDS011;61816;53.582;10.096;2022-09-27T15:50:30;8.32;;;1.80;;
73550;SDS011;61816;53.582;10.096;2022-09-27T15:55:28;8.32;;;2.25;;
73550;SDS011;61816;53.582;10.096;2022-09-27T15:58:04;4.40;;;1.70;;
73550;SDS011;61816;53.582;10.096;2022-09-27T16:00:34;5.82;;;2.08;;
73550;SDS011;61816;53.582;10.096;2022-09-27T16:03:03;3.85;;;1.73;;
73550;SDS011;61816;53.582;10.096;2022-09-27T16:05:29;10.32;;;2.50;;
73550;SDS011;61816;53.582;10.096;2022-09-27T16:07:57;5.70;;;2.05;;
73550;SDS011;61816;53.582;10.096;2022-09-27T16:10:26;7.65;;;1.55;;
73550;SDS011;61816;53.582;10.096;2022-09-27T16:12:56;8.90;;;2.35;;
73550;SDS011;61816;53.582;10.096;2022-09-27T16:15:22;4.93;;;1.40;;
73550;SDS011;61816;53.582;10.096;2022-09-27T16:17:48;6.32;;;1.45;;
73550;SDS011;61816;53.582;10.096;2022-09-27T16:20:16;10.32;;;1.80;;
73550;SDS011;61816;53.582;10.096;2022-09-27T16:22:50;7.13;;;1.42;;
73550;SDS011;61816;53.582;10.096;2022-09-27T16:25:16;8.95;;;1.88;;
73550;SDS011;61816;53.582;10.096;2022-09-27T16:27:42;4.05;;;1.52;;
73550;SDS011;61816;53.582;10.096;2022-09-27T16:30:08;4.82;;;1.63;;
73550;SDS011;61816;53.582;10.096;2022-09-27T16:32:41;5.80;;;1.88;;
73550;SDS011;61816;53.582;10.096;2022-09-27T16:35:08;9.38;;;1.55;;
73550;SDS011;61816;53.582;10.096;2022-09-27T16:37:36;5.15;;;1.77;;
73550;SDS011;61816;53.582;10.096;2022-09-27T16:40:02;7.25;;;1.95;;
73550;SDS011;61816;53.582;10.096;2022-09-27T16:42:29;6.78;;;1.90;;
73550;SDS011;61816;53.582;10.096;2022-09-27T16:44:54;3.95;;;1.27;;
73550;SDS011;61816;53.582;10.096;2022-09-27T16:47:20;7.07;;;1.70;;
73550;SDS011;61816;53.582;10.096;2022-09-27T16:49:45;6.07;;;1.15;;
73550;SDS011;61816;53.582;10.096;2022-09-27T16:55:34;7.40;;;1.98;;
73550;SDS011;61816;53.582;10.096;2022-09-27T16:58:04;5.55;;;1.83;;
73550;SDS011;61816;53.582;10.096;2022-09-27T17:00:32;5.82;;;1.83;;
73550;SDS011;61816;53.582;10.096;2022-09-27T17:03:02;6.82;;;2.38;;
73550;SDS011;61816;53.582;10.096;2022-09-27T17:05:28;7.15;;;2.33;;
73550;SDS011;61816;53.582;10.096;2022-09-27T17:07:54;8.05;;;2.63;;
73550;SDS011;61816;53.582;10.096;2022-09-27T17:10:20;6.43;;;2.45;;
73550;SDS011;61816;53.582;10.096;2022-09-27T17:12:46;6.25;;;1.92;;
73550;SDS011;61816;53.582;10.096;2022-09-27T17:15:12;6.00;;;2.25;;
73550;SDS011;61816;53.582;10.096;2022-09-27T17:17:42;10.63;;;4.00;;
73550;SDS011;61816;53.582;10.096;2022-09-27T17:20:09;16.75;;;3.58;;
73550;SDS011;61816;53.582;10.096;2022-09-27T17:22:34;8.38;;;2.08;;
73550;SDS011;61816;53.582;10.096;2022-09-27T17:25:00;8.93;;;2.03;;
73550;SDS011;61816;53.582;10.096;2022-09-27T17:31:07;3.42;;;1.70;;
73550;SDS011;61816;53.582;10.096;2022-09-27T17:33:35;3.55;;;1.55;;
73550;SDS011;61816;53.582;10.096;2022-09-27T17:36:05;8.13;;;1.60;;
73550;SDS011;61816;53.582;10.096;2022-09-27T17:38:32;5.25;;;1.95;;
73550;SDS011;61816;53.582;10.096;2022-09-27T17:41:02;5.70;;;1.92;;
73550;SDS011;61816;53.582;10.096;2022-09-27T17:43:30;3.00;;;1.40;;
73550;SDS011;61816;53.582;10.096;2022-09-27T17:46:04;6.07;;;1.40;;